sensor_id;sensor_type;location;lat;lon;timestamp;P1;durP1;ratioP1;P2;durP2;ratioP2
78840;SDS011;68379;47.190;27.558;2023-04-29T00:01:43;6.10;;;3.30;;
78840;SDS011;68379;47.190;27.558;2023-04-29T00:04:15;4.50;;;3.10;;
78840;SDS011;68379;47.190;27.558;2023-04-29T00:06:47;6.10;;;3.90;;
78840;SDS011;68379;47.190;27.558;2023-04-29T00:09:19;6.40;;;3.20;;
78840;SDS011;68379;47.190;27.558;2023-04-29T00:11:51;7.40;;;3.40;;
78840;SDS011;68379;47.190;27.558;2023-04-29T00:14:23;6.60;;;3.50;;
78840;SDS011;68379;47.190;27.558;2023-04-29T00:16:55;4.90;;;3.10;;
78840;SDS011;68379;47.190;27.558;2023-04-29T00:19:27;4.70;;;3.20;;
78840;SDS011;68379;47.190;27.558;2023-04-29T00:21:58;6.30;;;3.80;;
78840;SDS011;68379;47.190;27.558;2023-04-29T00:24:30;7.90;;;3.70;;
78840;SDS011;68379;47.190;27.558;2023-04-29T00:27:02;5.70;;;3.30;;
78840;SDS011;68379;47.190;27.558;2023-04-29T00:29:34;6.40;;;3.30;;
78840;SDS011;68379;47.190;27.558;2023-04-29T00:32:06;6.90;;;4.00;;
78840;SDS011;68379;47.190;27.558;2023-04-29T00:34:37;7.50;;;3.30;;
78840;SDS011;68379;47.190;27.558;2023-04-29T00:37:09;7.30;;;4.00;;
78840;SDS011;68379;47.190;27.558;2023-04-29T00:39:41;7.70;;;3.70;;
78840;SDS011;68379;47.190;27.558;2023-04-29T00:42:13;7.00;;;4.00;;
78840;SDS011;68379;47.190;27.558;2023-04-29T00:44:45;7.10;;;3.70;;
78840;SDS011;68379;47.190;27.558;2023-04-29T00:47:16;8.60;;;3.90;;
78840;SDS011;68379;47.190;27.558;2023-04-29T00:49:48;7.10;;;4.00;;
78840;SDS011;68379;47.190;27.558;2023-04-29T00:52:20;9.80;;;4.50;;
78840;SDS011;68379;47.190;27.558;2023-04-29T00:54:53;8.50;;;4.50;;
78840;SDS011;68379;47.190;27.558;2023-04-29T00:57:25;10.80;;;5.80;;
78840;SDS011;68379;47.190;27.558;2023-04-29T00:59:57;7.50;;;4.70;;
78840;SDS011;68379;47.190;27.558;2023-04-29T01:02:29;8.00;;;3.90;;
78840;SDS011;68379;47.190;27.558;2023-04-29T01:05:01;7.20;;;4.00;;
78840;SDS011;68379;47.190;27.558;2023-04-29T01:07:36;8.20;;;4.60;;
78840;SDS011;68379;47.190;27.558;2023-04-29T01:10:19;6.60;;;4.50;;
78840;SDS011;68379;47.190;27.558;2023-04-29T01:13:03;7.40;;;4.40;;
78840;SDS011;68379;47.190;27.558;2023-04-29T01:15:45;9.30;;;4.30;;
78840;SDS011;68379;47.190;27.558;2023-04-29T01:18:23;7.50;;;4.20;;
78840;SDS011;68379;47.190;27.558;2023-04-29T01:20:58;10.30;;;5.00;;
78840;SDS011;68379;47.190;27.558;2023-04-29T01:23:30;8.00;;;4.40;;
78840;SDS011;68379;47.190;27.558;2023-04-29T01:26:02;7.40;;;4.40;;
78840;SDS011;68379;47.190;27.558;2023-04-29T01:28:39;9.00;;;5.00;;
78840;SDS011;68379;47.190;27.558;2023-04-29T01:31:18;12.00;;;6.00;;
78840;SDS011;68379;47.190;27.558;2023-04-29T01:34:03;10.30;;;4.70;;
78840;SDS011;68379;47.190;27.558;2023-04-29T01:36:42;8.90;;;5.20;;
78840;SDS011;68379;47.190;27.558;2023-04-29T01:39:36;7.20;;;4.20;;
78840;SDS011;68379;47.190;27.558;2023-04-29T01:42:17;7.70;;;4.20;;
78840;SDS011;68379;47.190;27.558;2023-04-29T01:44:55;8.20;;;4.60;;
78840;SDS011;68379;47.190;27.558;2023-04-29T01:47:34;10.00;;;4.50;;
78840;SDS011;68379;47.190;27.558;2023-04-29T01:50:08;7.40;;;4.20;;
78840;SDS011;68379;47.190;27.558;2023-04-29T01:52:40;6.60;;;4.30;;
78840;SDS011;68379;47.190;27.558;2023-04-29T01:55:12;7.30;;;4.40;;
78840;SDS011;68379;47.190;27.558;2023-04-29T01:57:44;9.30;;;4.70;;
78840;SDS011;68379;47.190;27.558;2023-04-29T02:00:16;6.00;;;3.90;;
78840;SDS011;68379;47.190;27.558;2023-04-29T02:02:48;8.70;;;4.50;;
78840;SDS011;68379;47.190;27.558;2023-04-29T02:05:19;8.10;;;4.70;;
78840;SDS011;68379;47.190;27.558;2023-04-29T02:07:51;11.60;;;7.10;;
78840;SDS011;68379;47.190;27.558;2023-04-29T02:10:23;9.40;;;5.30;;
78840;SDS011;68379;47.190;27.558;2023-04-29T02:12:55;8.10;;;5.20;;
78840;SDS011;68379;47.190;27.558;2023-04-29T02:15:26;11.00;;;5.30;;
78840;SDS011;68379;47.190;27.558;2023-04-29T02:17:58;11.40;;;4.90;;
78840;SDS011;68379;47.190;27.558;2023-04-29T02:20:30;10.90;;;4.60;;
78840;SDS011;68379;47.190;27.558;2023-04-29T02:23:02;10.20;;;4.70;;
78840;SDS011;68379;47.190;27.558;2023-04-29T02:25:33;12.50;;;5.70;;
78840;SDS011;68379;47.190;27.558;2023-04-29T02:28:06;9.40;;;5.10;;
78840;SDS011;68379;47.190;27.558;2023-04-29T02:30:37;10.00;;;5.60;;
78840;SDS011;68379;47.190;27.558;2023-04-29T02:33:09;13.40;;;5.90;;
78840;SDS011;68379;47.190;27.558;2023-04-29T02:35:41;11.10;;;5.50;;
78840;SDS011;68379;47.190;27.558;2023-04-29T02:38:13;12.90;;;5.50;;
78840;SDS011;68379;47.190;27.558;2023-04-29T02:40:45;11.30;;;5.40;;
78840;SDS011;68379;47.190;27.558;2023-04-29T02:43:17;11.70;;;5.80;;
78840;SDS011;68379;47.190;27.558;2023-04-29T02:45:51;17.80;;;8.50;;
78840;SDS011;68379;47.190;27.558;2023-04-29T02:48:23;17.90;;;8.00;;
78840;SDS011;68379;47.190;27.558;2023-04-29T02:50:55;19.60;;;7.10;;
78840;SDS011;68379;47.190;27.558;2023-04-29T02:53:26;16.30;;;7.50;;
78840;SDS011;68379;47.190;27.558;2023-04-29T02:55:58;9.50;;;4.70;;
78840;SDS011;68379;47.190;27.558;2023-04-29T02:58:30;11.30;;;5.60;;
78840;SDS011;68379;47.190;27.558;2023-04-29T03:01:02;9.70;;;5.20;;
78840;SDS011;68379;47.190;27.558;2023-04-29T03:03:34;12.60;;;5.90;;
78840;SDS011;68379;47.190;27.558;2023-04-29T03:06:06;13.10;;;6.00;;
78840;SDS011;68379;47.190;27.558;2023-04-29T03:08:38;10.10;;;5.40;;
78840;SDS011;68379;47.190;27.558;2023-04-29T03:11:10;11.00;;;5.10;;
78840;SDS011;68379;47.190;27.558;2023-04-29T03:13:42;9.90;;;5.60;;
78840;SDS011;68379;47.190;27.558;2023-04-29T03:16:14;12.10;;;5.10;;
78840;SDS011;68379;47.190;27.558;2023-04-29T03:18:46;11.50;;;5.80;;
78840;SDS011;68379;47.190;27.558;2023-04-29T03:21:18;14.60;;;6.10;;
78840;SDS011;68379;47.190;27.558;2023-04-29T03:23:49;23.10;;;10.10;;
78840;SDS011;68379;47.190;27.558;2023-04-29T03:26:21;14.00;;;7.70;;
78840;SDS011;68379;47.190;27.558;2023-04-29T03:28:53;11.60;;;6.20;;
78840;SDS011;68379;47.190;27.558;2023-04-29T03:31:25;12.00;;;6.70;;
78840;SDS011;68379;47.190;27.558;2023-04-29T03:33:57;6.50;;;4.00;;
78840;SDS011;68379;47.190;27.558;2023-04-29T03:36:29;10.70;;;4.90;;
78840;SDS011;68379;47.190;27.558;2023-04-29T03:39:01;10.70;;;5.50;;
78840;SDS011;68379;47.190;27.558;2023-04-29T03:41:33;10.50;;;5.20;;
78840;SDS011;68379;47.190;27.558;2023-04-29T03:44:05;10.80;;;5.50;;
78840;SDS011;68379;47.190;27.558;2023-04-29T03:46:36;11.50;;;5.70;;
78840;SDS011;68379;47.190;27.558;2023-04-29T03:49:08;10.40;;;6.00;;
78840;SDS011;68379;47.190;27.558;2023-04-29T03:51:40;10.60;;;6.30;;
78840;SDS011;68379;47.190;27.558;2023-04-29T03:54:13;14.30;;;6.60;;
78840;SDS011;68379;47.190;27.558;2023-04-29T03:56:45;11.00;;;6.60;;
78840;SDS011;68379;47.190;27.558;2023-04-29T03:59:17;10.90;;;6.10;;
78840;SDS011;68379;47.190;27.558;2023-04-29T04:01:49;13.50;;;7.50;;
78840;SDS011;68379;47.190;27.558;2023-04-29T04:04:21;13.10;;;6.00;;
78840;SDS011;68379;47.190;27.558;2023-04-29T04:06:53;11.80;;;6.20;;
78840;SDS011;68379;47.190;27.558;2023-04-29T04:09:25;12.10;;;5.40;;
78840;SDS011;68379;47.190;27.558;2023-04-29T04:11:57;10.70;;;5.30;;
78840;SDS011;68379;47.190;27.558;2023-04-29T04:14:28;14.80;;;7.60;;
78840;SDS011;68379;47.190;27.558;2023-04-29T04:17:00;16.90;;;7.00;;
78840;SDS011;68379;47.190;27.558;2023-04-29T04:19:33;13.20;;;6.50;;
78840;SDS011;68379;47.190;27.558;2023-04-29T04:22:06;12.10;;;5.30;;
78840;SDS011;68379;47.190;27.558;2023-04-29T04:24:39;11.70;;;6.10;;
78840;SDS011;68379;47.190;27.558;2023-04-29T04:27:11;12.40;;;6.50;;
78840;SDS011;68379;47.190;27.558;2023-04-29T04:29:43;13.80;;;6.20;;
78840;SDS011;68379;47.190;27.558;2023-04-29T04:32:14;9.50;;;6.10;;
78840;SDS011;68379;47.190;27.558;2023-04-29T04:34:46;12.60;;;6.30;;
78840;SDS011;68379;47.190;27.558;2023-04-29T04:37:18;13.40;;;6.50;;
78840;SDS011;68379;47.190;27.558;2023-04-29T04:39:50;13.80;;;7.10;;
78840;SDS011;68379;47.190;27.558;2023-04-29T04:42:22;14.80;;;6.50;;
78840;SDS011;68379;47.190;27.558;2023-04-29T04:44:54;13.60;;;6.50;;
78840;SDS011;68379;47.190;27.558;2023-04-29T04:47:25;11.80;;;6.50;;
78840;SDS011;68379;47.190;27.558;2023-04-29T04:49:57;11.90;;;6.40;;
78840;SDS011;68379;47.190;27.558;2023-04-29T04:52:29;11.60;;;6.10;;
78840;SDS011;68379;47.190;27.558;2023-04-29T04:55:01;11.10;;;6.10;;
78840;SDS011;68379;47.190;27.558;2023-04-29T04:57:33;10.00;;;6.20;;
78840;SDS011;68379;47.190;27.558;2023-04-29T05:00:06;10.50;;;5.50;;
78840;SDS011;68379;47.190;27.558;2023-04-29T05:02:39;14.30;;;6.80;;
78840;SDS011;68379;47.190;27.558;2023-04-29T05:05:10;11.90;;;6.20;;
78840;SDS011;68379;47.190;27.558;2023-04-29T05:07:42;11.10;;;6.00;;
78840;SDS011;68379;47.190;27.558;2023-04-29T05:10:14;10.30;;;6.50;;
78840;SDS011;68379;47.190;27.558;2023-04-29T05:12:46;10.60;;;6.30;;
78840;SDS011;68379;47.190;27.558;2023-04-29T05:15:18;12.40;;;6.50;;
78840;SDS011;68379;47.190;27.558;2023-04-29T05:17:49;13.10;;;7.50;;
78840;SDS011;68379;47.190;27.558;2023-04-29T05:20:21;12.90;;;7.20;;
78840;SDS011;68379;47.190;27.558;2023-04-29T05:22:53;10.80;;;6.80;;
78840;SDS011;68379;47.190;27.558;2023-04-29T05:25:25;13.10;;;6.50;;
78840;SDS011;68379;47.190;27.558;2023-04-29T05:27:56;14.50;;;6.80;;
78840;SDS011;68379;47.190;27.558;2023-04-29T05:30:28;10.40;;;6.20;;
78840;SDS011;68379;47.190;27.558;2023-04-29T05:33:00;17.10;;;7.60;;
78840;SDS011;68379;47.190;27.558;2023-04-29T05:35:32;10.50;;;7.00;;
78840;SDS011;68379;47.190;27.558;2023-04-29T05:38:03;14.10;;;7.60;;
78840;SDS011;68379;47.190;27.558;2023-04-29T05:40:35;12.10;;;6.40;;
78840;SDS011;68379;47.190;27.558;2023-04-29T05:43:07;13.90;;;6.80;;
78840;SDS011;68379;47.190;27.558;2023-04-29T05:45:39;13.10;;;7.60;;
78840;SDS011;68379;47.190;27.558;2023-04-29T05:48:11;12.60;;;7.50;;
78840;SDS011;68379;47.190;27.558;2023-04-29T05:50:43;11.90;;;6.20;;
78840;SDS011;68379;47.190;27.558;2023-04-29T05:53:16;13.60;;;7.00;;
78840;SDS011;68379;47.190;27.558;2023-04-29T05:55:47;9.80;;;6.70;;
78840;SDS011;68379;47.190;27.558;2023-04-29T05:58:19;11.60;;;6.70;;
78840;SDS011;68379;47.190;27.558;2023-04-29T06:00:51;12.90;;;7.60;;
78840;SDS011;68379;47.190;27.558;2023-04-29T06:03:22;11.20;;;6.30;;
78840;SDS011;68379;47.190;27.558;2023-04-29T06:05:54;11.60;;;6.30;;
78840;SDS011;68379;47.190;27.558;2023-04-29T06:08:26;11.00;;;5.70;;
78840;SDS011;68379;47.190;27.558;2023-04-29T06:10:58;10.90;;;5.80;;
78840;SDS011;68379;47.190;27.558;2023-04-29T06:13:30;10.30;;;5.90;;
78840;SDS011;68379;47.190;27.558;2023-04-29T06:16:03;11.70;;;5.90;;
78840;SDS011;68379;47.190;27.558;2023-04-29T06:18:36;9.30;;;5.50;;
78840;SDS011;68379;47.190;27.558;2023-04-29T06:21:09;10.40;;;5.90;;
78840;SDS011;68379;47.190;27.558;2023-04-29T06:23:40;10.60;;;6.10;;
78840;SDS011;68379;47.190;27.558;2023-04-29T06:26:12;10.40;;;6.10;;
78840;SDS011;68379;47.190;27.558;2023-04-29T06:28:44;10.30;;;6.30;;
78840;SDS011;68379;47.190;27.558;2023-04-29T06:31:15;9.80;;;5.90;;
78840;SDS011;68379;47.190;27.558;2023-04-29T06:33:47;10.30;;;4.90;;
78840;SDS011;68379;47.190;27.558;2023-04-29T06:36:19;7.80;;;4.50;;
78840;SDS011;68379;47.190;27.558;2023-04-29T15:54:28;4.10;;;1.70;;
78840;SDS011;68379;47.190;27.558;2023-04-29T15:56:57;2.60;;;1.10;;
78840;SDS011;68379;47.190;27.558;2023-04-29T15:59:26;2.90;;;1.30;;
78840;SDS011;68379;47.190;27.558;2023-04-29T16:01:55;4.60;;;1.40;;
78840;SDS011;68379;47.190;27.558;2023-04-29T16:04:25;2.60;;;1.20;;
78840;SDS011;68379;47.190;27.558;2023-04-29T16:06:54;3.50;;;1.70;;
78840;SDS011;68379;47.190;27.558;2023-04-29T16:09:23;3.90;;;1.70;;
78840;SDS011;68379;47.190;27.558;2023-04-29T16:11:52;3.00;;;1.60;;
78840;SDS011;68379;47.190;27.558;2023-04-29T16:14:21;4.50;;;1.70;;
78840;SDS011;68379;47.190;27.558;2023-04-29T16:16:50;4.90;;;1.80;;
78840;SDS011;68379;47.190;27.558;2023-04-29T16:19:19;3.40;;;1.60;;
78840;SDS011;68379;47.190;27.558;2023-04-29T16:21:48;4.00;;;1.80;;
78840;SDS011;68379;47.190;27.558;2023-04-29T16:24:17;4.40;;;1.30;;
78840;SDS011;68379;47.190;27.558;2023-04-29T16:26:46;3.40;;;1.40;;
78840;SDS011;68379;47.190;27.558;2023-04-29T16:29:16;2.80;;;1.50;;
78840;SDS011;68379;47.190;27.558;2023-04-29T16:31:45;3.40;;;1.30;;
78840;SDS011;68379;47.190;27.558;2023-04-29T16:34:14;2.60;;;1.60;;
78840;SDS011;68379;47.190;27.558;2023-04-29T16:36:43;2.10;;;1.30;;
78840;SDS011;68379;47.190;27.558;2023-04-29T16:39:12;4.20;;;1.50;;
78840;SDS011;68379;47.190;27.558;2023-04-29T16:41:41;3.90;;;1.90;;
78840;SDS011;68379;47.190;27.558;2023-04-29T16:44:10;5.20;;;3.00;;
78840;SDS011;68379;47.190;27.558;2023-04-29T16:46:40;5.20;;;2.90;;
78840;SDS011;68379;47.190;27.558;2023-04-29T16:49:09;6.30;;;3.00;;
78840;SDS011;68379;47.190;27.558;2023-04-29T16:51:38;5.10;;;2.80;;
78840;SDS011;68379;47.190;27.558;2023-04-29T16:54:07;6.30;;;3.10;;
78840;SDS011;68379;47.190;27.558;2023-04-29T16:56:36;5.60;;;3.10;;
78840;SDS011;68379;47.190;27.558;2023-04-29T16:59:05;5.00;;;3.70;;
78840;SDS011;68379;47.190;27.558;2023-04-29T17:01:34;6.50;;;2.80;;
78840;SDS011;68379;47.190;27.558;2023-04-29T17:04:03;5.50;;;2.40;;
78840;SDS011;68379;47.190;27.558;2023-04-29T17:06:34;5.50;;;2.30;;
78840;SDS011;68379;47.190;27.558;2023-04-29T17:09:03;6.50;;;2.80;;
78840;SDS011;68379;47.190;27.558;2023-04-29T17:11:33;4.60;;;2.40;;
78840;SDS011;68379;47.190;27.558;2023-04-29T17:14:02;6.10;;;3.20;;
78840;SDS011;68379;47.190;27.558;2023-04-29T17:16:31;9.50;;;3.80;;
78840;SDS011;68379;47.190;27.558;2023-04-29T17:19:00;6.60;;;3.40;;
78840;SDS011;68379;47.190;27.558;2023-04-29T17:21:29;9.10;;;3.30;;
78840;SDS011;68379;47.190;27.558;2023-04-29T17:23:58;7.30;;;3.90;;
78840;SDS011;68379;47.190;27.558;2023-04-29T17:26:27;10.10;;;4.60;;
78840;SDS011;68379;47.190;27.558;2023-04-29T17:28:56;7.80;;;4.30;;
78840;SDS011;68379;47.190;27.558;2023-04-29T17:31:25;10.30;;;4.60;;
78840;SDS011;68379;47.190;27.558;2023-04-29T17:36:45;9.20;;;4.40;;
78840;SDS011;68379;47.190;27.558;2023-04-29T17:39:14;8.80;;;4.40;;
78840;SDS011;68379;47.190;27.558;2023-04-29T17:41:43;8.20;;;3.50;;
78840;SDS011;68379;47.190;27.558;2023-04-29T17:44:12;7.00;;;3.50;;
78840;SDS011;68379;47.190;27.558;2023-04-29T17:46:41;10.40;;;3.50;;
78840;SDS011;68379;47.190;27.558;2023-04-29T17:49:10;8.20;;;3.70;;
78840;SDS011;68379;47.190;27.558;2023-04-29T17:51:39;7.00;;;3.20;;
78840;SDS011;68379;47.190;27.558;2023-04-29T17:54:08;11.60;;;3.80;;
78840;SDS011;68379;47.190;27.558;2023-04-29T17:56:37;7.50;;;3.60;;
78840;SDS011;68379;47.190;27.558;2023-04-29T17:59:06;11.60;;;4.50;;
78840;SDS011;68379;47.190;27.558;2023-04-29T18:01:35;8.40;;;4.30;;
78840;SDS011;68379;47.190;27.558;2023-04-29T18:04:04;9.10;;;4.50;;
78840;SDS011;68379;47.190;27.558;2023-04-29T18:06:33;13.40;;;3.90;;
78840;SDS011;68379;47.190;27.558;2023-04-29T18:09:03;7.10;;;3.30;;
78840;SDS011;68379;47.190;27.558;2023-04-29T18:11:32;8.50;;;3.40;;
78840;SDS011;68379;47.190;27.558;2023-04-29T18:14:01;7.40;;;3.20;;
78840;SDS011;68379;47.190;27.558;2023-04-29T18:16:30;7.90;;;3.50;;
78840;SDS011;68379;47.190;27.558;2023-04-29T18:18:59;6.20;;;2.90;;
78840;SDS011;68379;47.190;27.558;2023-04-29T18:21:28;11.80;;;3.40;;
78840;SDS011;68379;47.190;27.558;2023-04-29T18:23:58;6.60;;;3.00;;
78840;SDS011;68379;47.190;27.558;2023-04-29T18:26:27;5.60;;;3.40;;
78840;SDS011;68379;47.190;27.558;2023-04-29T18:28:56;5.00;;;2.40;;
78840;SDS011;68379;47.190;27.558;2023-04-29T18:31:25;6.10;;;2.70;;
78840;SDS011;68379;47.190;27.558;2023-04-29T18:33:54;4.50;;;2.20;;
78840;SDS011;68379;47.190;27.558;2023-04-29T18:36:23;4.90;;;2.20;;
78840;SDS011;68379;47.190;27.558;2023-04-29T18:38:54;6.80;;;3.10;;
78840;SDS011;68379;47.190;27.558;2023-04-29T18:41:23;6.10;;;2.30;;
78840;SDS011;68379;47.190;27.558;2023-04-29T18:43:52;4.50;;;1.90;;
78840;SDS011;68379;47.190;27.558;2023-04-29T18:46:21;6.30;;;2.00;;
78840;SDS011;68379;47.190;27.558;2023-04-29T18:48:50;3.70;;;1.60;;
78840;SDS011;68379;47.190;27.558;2023-04-29T18:51:20;4.70;;;1.90;;
78840;SDS011;68379;47.190;27.558;2023-04-29T18:53:49;5.10;;;2.30;;
78840;SDS011;68379;47.190;27.558;2023-04-29T18:56:18;4.30;;;2.20;;
78840;SDS011;68379;47.190;27.558;2023-04-29T18:58:47;6.80;;;2.10;;
78840;SDS011;68379;47.190;27.558;2023-04-29T19:01:16;4.90;;;2.50;;
78840;SDS011;68379;47.190;27.558;2023-04-29T19:03:45;6.40;;;2.10;;
78840;SDS011;68379;47.190;27.558;2023-04-29T19:06:14;4.60;;;2.20;;
78840;SDS011;68379;47.190;27.558;2023-04-29T19:08:43;4.60;;;2.20;;
78840;SDS011;68379;47.190;27.558;2023-04-29T19:11:12;6.30;;;2.00;;
78840;SDS011;68379;47.190;27.558;2023-04-29T19:13:41;6.80;;;2.10;;
78840;SDS011;68379;47.190;27.558;2023-04-29T19:16:10;6.30;;;1.80;;
78840;SDS011;68379;47.190;27.558;2023-04-29T19:18:39;3.90;;;1.90;;
78840;SDS011;68379;47.190;27.558;2023-04-29T19:21:08;4.60;;;2.10;;
78840;SDS011;68379;47.190;27.558;2023-04-29T19:23:41;5.00;;;2.50;;
78840;SDS011;68379;47.190;27.558;2023-04-29T19:26:10;8.60;;;2.40;;
78840;SDS011;68379;47.190;27.558;2023-04-29T19:28:39;6.50;;;2.40;;
78840;SDS011;68379;47.190;27.558;2023-04-29T19:31:08;3.90;;;1.70;;
78840;SDS011;68379;47.190;27.558;2023-04-29T19:33:37;3.90;;;2.10;;
78840;SDS011;68379;47.190;27.558;2023-04-29T19:36:07;6.50;;;2.10;;
78840;SDS011;68379;47.190;27.558;2023-04-29T19:38:37;5.10;;;2.60;;
78840;SDS011;68379;47.190;27.558;2023-04-29T19:41:06;3.70;;;2.10;;
78840;SDS011;68379;47.190;27.558;2023-04-29T19:43:35;4.90;;;2.80;;
78840;SDS011;68379;47.190;27.558;2023-04-29T19:46:04;6.10;;;2.70;;
78840;SDS011;68379;47.190;27.558;2023-04-29T19:48:33;4.70;;;2.40;;
78840;SDS011;68379;47.190;27.558;2023-04-29T19:51:03;7.00;;;2.60;;
